Time;durP1;ratioP1;P1;durP2;ratioP2;P2;SDS_P1;SDS_P2;PMS_P1;PMS_P2;Temp;Humidity;BMP_temperature;BMP_pressure;BME280_temperature;BME280_humidity;BME280_pressure;Samples;Min_cycle;Max_cycle;Signal;HPM_P1;HPM_P2
2022/03/31 00:00:56;;;;;;;2.72;0.50;;;;;;;3.56;100.00;100553.44;5113567;28;20074;-29
2022/03/31 00:03:25;;;;;;;2.42;0.70;;;;;;;3.58;100.00;100559.53;5113454;28;20508;-31
2022/03/31 00:05:54;;;;;;;1.85;0.52;;;;;;;3.57;100.00;100555.09;5112995;28;20039;-25
2022/03/31 00:08:23;;;;;;;2.95;0.50;;;;;;;3.58;100.00;100553.19;5113367;28;20040;-28
2022/03/31 00:10:53;;;;;;;3.20;0.65;;;;;;;3.58;100.00;100550.44;5113664;28;20044;-27
2022/03/31 00:13:23;;;;;;;3.03;0.57;;;;;;;3.56;100.00;100552.59;5112165;28;20043;-28
2022/03/31 00:15:53;;;;;;;4.25;0.50;;;;;;;3.56;100.00;100558.97;5113729;28;20055;-29
2022/03/31 00:18:22;;;;;;;4.88;0.70;;;;;;;3.54;100.00;100550.09;5113349;28;20089;-28
2022/03/31 00:24:38;;;;;;;2.00;0.40;;;;;;;3.49;100.00;100547.28;5105370;28;20073;-30
2022/03/31 00:27:06;;;;;;;3.25;0.50;;;;;;;3.48;100.00;100545.63;5112242;28;20046;-33
2022/03/31 00:29:34;;;;;;;1.75;0.40;;;;;;;3.45;100.00;100538.69;5111982;28;20075;-28
2022/03/31 00:32:03;;;;;;;2.10;0.40;;;;;;;3.43;100.00;100548.31;5113223;28;20056;-31
2022/03/31 00:34:31;;;;;;;2.47;0.60;;;;;;;3.40;100.00;100537.81;5112430;28;20054;-28
2022/03/31 00:36:59;;;;;;;2.38;0.40;;;;;;;3.36;100.00;100543.03;5113001;28;20130;-30
2022/03/31 00:39:31;;;;;;;2.05;0.45;;;;;;;3.36;100.00;100548.53;5113399;28;20071;-28
2022/03/31 00:42:02;;;;;;;2.47;0.50;;;;;;;3.37;100.00;100539.19;5100667;28;20051;-26
2022/03/31 00:44:30;;;;;;;1.77;0.50;;;;;;;3.40;100.00;100535.03;5109715;28;20062;-27
2022/03/31 00:46:59;;;;;;;2.42;0.40;;;;;;;3.42;100.00;100530.09;5112414;28;20052;-27
2022/03/31 00:49:27;;;;;;;2.05;0.60;;;;;;;3.44;100.00;100528.75;5112103;28;20035;-29
2022/03/31 00:51:55;;;;;;;1.98;0.40;;;;;;;3.45;100.00;100524.91;5109372;28;20047;-26
2022/03/31 00:54:26;;;;;;;2.70;0.40;;;;;;;3.45;100.00;100519.38;5111966;28;20523;-28
2022/03/31 00:56:56;;;;;;;1.77;0.43;;;;;;;3.47;100.00;100524.66;5111899;28;20044;-26
2022/03/31 00:59:26;;;;;;;1.65;0.40;;;;;;;3.48;100.00;100518.03;5112725;28;20051;-30
2022/03/31 01:01:55;;;;;;;1.77;0.40;;;;;;;3.50;100.00;100515.84;5112199;28;20152;-25
2022/03/31 01:04:23;;;;;;;2.45;0.55;;;;;;;3.54;100.00;100508.72;5112541;28;20056;-28
2022/03/31 01:06:52;;;;;;;1.85;0.60;;;;;;;3.56;100.00;100514.81;5112940;28;20086;-27
2022/03/31 01:09:20;;;;;;;2.50;0.60;;;;;;;3.56;100.00;100509.31;5111893;28;20139;-27
2022/03/31 01:11:49;;;;;;;3.10;0.52;;;;;;;3.58;100.00;100509.03;5112597;28;20412;-28
2022/03/31 01:14:17;;;;;;;3.38;0.60;;;;;;;3.60;100.00;100510.41;5112390;28;20036;-26
2022/03/31 01:16:46;;;;;;;3.20;0.70;;;;;;;3.61;100.00;100514.84;5111436;28;20051;-27
2022/03/31 01:19:14;;;;;;;3.95;0.98;;;;;;;3.57;100.00;100510.97;5112417;28;20509;-23
2022/03/31 01:21:45;;;;;;;1.38;0.40;;;;;;;3.50;100.00;100515.84;5112148;28;20462;-24
2022/03/31 01:24:17;;;;;;;2.05;0.40;;;;;;;3.42;100.00;100516.31;5112439;28;20063;-30
2022/03/31 01:26:45;;;;;;;2.20;0.32;;;;;;;3.34;100.00;100517.63;5112401;28;20063;-31
2022/03/31 01:29:14;;;;;;;0.65;0.20;;;;;;;3.24;100.00;100516.69;5111462;28;20051;-33
2022/03/31 01:31:42;;;;;;;1.45;0.30;;;;;;;3.18;100.00;100512.22;5111931;28;20039;-31
2022/03/31 01:34:10;;;;;;;0.90;0.30;;;;;;;3.15;100.00;100493.44;5112461;28;20051;-28
2022/03/31 01:36:38;;;;;;;1.20;0.40;;;;;;;3.11;100.00;100491.19;5098739;28;20054;-28
2022/03/31 01:39:07;;;;;;;0.63;0.20;;;;;;;3.10;100.00;100488.69;5111942;28;20130;-32
2022/03/31 01:41:36;;;;;;;1.00;0.28;;;;;;;3.11;100.00;100482.94;5112086;28;20141;-28
2022/03/31 01:44:05;;;;;;;1.42;0.30;;;;;;;3.13;100.00;100481.84;5111224;28;20094;-29
2022/03/31 01:46:33;;;;;;;1.05;0.30;;;;;;;3.14;100.00;100472.47;5108735;28;20047;-29
2022/03/31 01:49:01;;;;;;;1.20;0.25;;;;;;;3.14;100.00;100465.03;5112226;28;20047;-24
2022/03/31 01:51:29;;;;;;;2.15;0.20;;;;;;;3.15;100.00;100452.09;5111257;28;20067;-28
2022/03/31 01:53:57;;;;;;;1.08;0.30;;;;;;;3.16;100.00;100462.84;5108637;28;20056;-26
2022/03/31 01:56:25;;;;;;;1.67;0.30;;;;;;;3.19;100.00;100465.09;5111953;28;20101;-26
2022/03/31 01:58:54;;;;;;;1.40;0.25;;;;;;;3.19;100.00;100458.75;5111024;28;20090;-27
2022/03/31 02:01:22;;;;;;;1.60;0.20;;;;;;;3.20;100.00;100458.47;5115558;28;20048;-32
2022/03/31 02:03:51;;;;;;;1.77;0.30;;;;;;;3.21;100.00;100446.34;5116193;28;20040;-27
2022/03/31 02:06:19;;;;;;;1.25;0.30;;;;;;;3.22;100.00;100447.19;5115565;28;20055;-28
2022/03/31 02:08:47;;;;;;;1.65;0.30;;;;;;;3.22;100.00;100441.66;5115849;28;20051;-26
2022/03/31 02:11:15;;;;;;;0.88;0.30;;;;;;;3.22;100.00;100436.16;5112962;28;20124;-33
2022/03/31 02:13:45;;;;;;;2.05;0.32;;;;;;;3.22;100.00;100450.75;5114095;28;20137;-28
2022/03/31 02:16:16;;;;;;;1.92;0.40;;;;;;;3.24;100.00;100434.78;5114183;28;20043;-29
2022/03/31 02:18:45;;;;;;;0.98;0.20;;;;;;;3.25;100.00;100432.88;5113491;28;20555;-31
2022/03/31 02:21:13;;;;;;;1.08;0.30;;;;;;;3.26;100.00;100432.63;5113886;28;20040;-30
2022/03/31 02:23:41;;;;;;;2.92;0.65;;;;;;;3.28;100.00;100432.34;5113814;28;20035;-31
2022/03/31 02:26:09;;;;;;;1.10;0.40;;;;;;;3.30;100.00;100427.41;5114120;28;20434;-29
2022/03/31 02:28:39;;;;;;;1.48;0.47;;;;;;;3.32;100.00;100426.06;5115751;28;20112;-28
2022/03/31 02:31:07;;;;;;;1.23;0.47;;;;;;;3.35;100.00;100431.06;5115786;28;20250;-32
2022/03/31 02:33:38;;;;;;;1.92;0.70;;;;;;;3.37;100.00;100423.34;5114888;28;20046;-26
2022/03/31 02:36:07;;;;;;;3.40;0.80;;;;;;;3.40;100.00;100424.72;5114570;28;20521;-24
2022/03/31 02:38:36;;;;;;;2.75;0.85;;;;;;;3.42;100.00;100425.31;5115374;28;20052;-26
2022/03/31 02:41:05;;;;;;;2.20;0.70;;;;;;;3.43;100.00;100416.78;5114853;28;20407;-28
2022/03/31 02:43:33;;;;;;;1.30;0.50;;;;;;;3.45;100.00;100420.09;5115371;28;20122;-32
2022/03/31 02:46:01;;;;;;;3.72;0.50;;;;;;;3.46;100.00;100421.75;5115434;28;20058;-28
2022/03/31 02:48:29;;;;;;;2.20;0.43;;;;;;;3.47;100.00;100417.06;5114321;28;20044;-30
2022/03/31 02:50:58;;;;;;;3.72;0.63;;;;;;;3.46;100.00;100415.41;5115223;28;20058;-29
2022/03/31 02:56:11;;;;;;;1.85;0.50;;;;;;;3.46;100.00;100415.41;5113199;28;20066;-26
2022/03/31 02:58:39;;;;;;;2.05;0.40;;;;;;;3.46;100.00;100415.41;5114905;28;20389;-27
2022/03/31 03:01:07;;;;;;;1.27;0.45;;;;;;;3.45;100.00;100400.78;5114313;28;20061;-25
2022/03/31 03:03:35;;;;;;;2.45;0.57;;;;;;;3.46;100.00;100398.88;5114828;28;20043;-24
2022/03/31 03:06:04;;;;;;;2.92;0.57;;;;;;;3.46;100.00;100404.38;5115202;28;20071;-31
2022/03/31 03:08:32;;;;;;;3.80;0.80;;;;;;;3.45;100.00;100397.19;5114233;27;20051;-27
2022/03/31 03:11:00;;;;;;;2.80;0.75;;;;;;;3.45;100.00;100395.28;5114338;28;20407;-31
2022/03/31 03:13:28;;;;;;;2.22;0.60;;;;;;;3.42;100.00;100386.69;5114843;28;20071;-29
2022/03/31 03:15:55;;;;;;;3.35;0.73;;;;;;;3.39;100.00;100381.72;5113931;28;20467;-25
2022/03/31 03:18:23;;;;;;;2.42;0.60;;;;;;;3.37;100.00;100378.41;5114657;28;20092;-28
2022/03/31 03:20:51;;;;;;;2.55;0.55;;;;;;;3.33;100.00;100377.25;5113034;27;20059;-24
2022/03/31 03:23:20;;;;;;;1.63;0.47;;;;;;;3.32;100.00;100378.34;5111532;28;20546;-30
2022/03/31 03:25:48;;;;;;;3.38;0.70;;;;;;;3.32;100.00;100378.34;5114070;28;20126;-29
2022/03/31 03:28:15;;;;;;;3.85;0.60;;;;;;;3.31;100.00;100369.25;5113719;28;20065;-29
2022/03/31 03:30:43;;;;;;;1.30;0.50;;;;;;;3.30;100.00;100367.59;5113400;27;20442;-34
2022/03/31 03:33:11;;;;;;;2.13;0.70;;;;;;;3.31;100.00;100365.66;5114312;28;20040;-29
2022/03/31 03:35:39;;;;;;;2.25;0.40;;;;;;;3.31;100.00;100368.41;5113571;28;20036;-24
2022/03/31 03:38:07;;;;;;;3.25;0.68;;;;;;;3.30;100.00;100375.03;5114200;28;20442;-27
2022/03/31 03:40:37;;;;;;;3.30;0.60;;;;;;;3.29;100.00;100367.84;5114491;28;20397;-31
2022/03/31 03:43:05;;;;;;;1.85;0.55;;;;;;;3.29;100.00;100370.59;5113500;28;20055;-34
2022/03/31 03:45:34;;;;;;;2.70;0.60;;;;;;;3.28;100.00;100368.94;5114282;28;20039;-30
2022/03/31 03:48:01;;;;;;;3.88;0.60;;;;;;;3.27;100.00;100378.31;5114496;28;20039;-27
2022/03/31 03:50:29;;;;;;;2.00;0.70;;;;;;;3.24;100.00;100363.13;5113136;28;20082;-31
2022/03/31 03:52:57;;;;;;;3.15;0.80;;;;;;;3.23;100.00;100371.66;5114299;28;20051;-28
2022/03/31 03:55:25;;;;;;;2.47;0.60;;;;;;;3.21;100.00;100379.34;5113800;28;20055;-30
2022/03/31 03:57:54;;;;;;;2.78;0.77;;;;;;;3.18;100.00;100379.91;5113111;28;20131;-27
2022/03/31 04:00:22;;;;;;;5.05;0.70;;;;;;;3.14;100.00;100387.03;5113996;27;20043;-30
2022/03/31 04:02:50;;;;;;;2.97;0.50;;;;;;;3.07;100.00;100387.22;5112279;28;20051;-25
2022/03/31 04:05:18;;;;;;;2.22;0.47;;;;;;;3.06;100.00;100374.53;5112961;28;20174;-26
2022/03/31 04:07:46;;;;;;;2.17;0.50;;;;;;;3.06;100.00;100369.84;5113687;28;20043;-28
2022/03/31 04:10:14;;;;;;;1.50;0.30;;;;;;;3.09;100.00;100371.25;5106255;28;20032;-27
2022/03/31 04:12:42;;;;;;;2.47;0.50;;;;;;;3.10;100.00;100372.91;5112233;28;20043;-23
2022/03/31 04:15:13;;;;;;;2.30;0.50;;;;;;;3.13;100.00;100371.56;5113660;28;20051;-30
2022/03/31 04:17:42;;;;;;;2.60;0.57;;;;;;;3.15;100.00;100372.16;5112326;28;20123;-26
2022/03/31 04:20:13;;;;;;;3.28;0.70;;;;;;;3.14;100.00;100365.78;5113539;28;20047;-31
2022/03/31 04:22:42;;;;;;;2.45;0.47;;;;;;;3.16;100.00;100371.88;5112041;28;20448;-29
2022/03/31 04:25:13;;;;;;;3.72;0.60;;;;;;;3.15;100.00;100361.13;5112593;28;20043;-29
2022/03/31 04:27:42;;;;;;;3.65;0.70;;;;;;;3.11;100.00;100358.88;5113249;28;20085;-26
2022/03/31 04:30:13;;;;;;;2.70;0.32;;;;;;;3.11;100.00;100358.88;5113271;28;20044;-26
2022/03/31 04:32:41;;;;;;;3.05;0.63;;;;;;;3.13;100.00;100366.06;5111698;28;20043;-25
2022/03/31 04:35:10;;;;;;;0.93;0.40;;;;;;;3.09;100.00;100361.06;5110072;28;20048;-25
2022/03/31 04:37:38;;;;;;;2.97;0.50;;;;;;;3.04;100.00;100362.94;5111997;28;20158;-30
2022/03/31 04:40:08;;;;;;;2.33;0.60;;;;;;;2.98;100.00;100364.00;5111238;28;20523;-30
2022/03/31 04:42:36;;;;;;;2.00;0.80;;;;;;;2.93;100.00;100373.03;5111696;28;20043;-27
2022/03/31 04:45:05;;;;;;;3.35;1.40;;;;;;;2.93;100.00;100377.72;5100266;28;20047;-30
2022/03/31 04:47:34;;;;;;;4.85;1.60;;;;;;;2.92;100.00;100376.06;5106832;28;20048;-24
2022/03/31 04:50:08;;;;;;;6.75;1.50;;;;;;;2.90;100.00;100381.00;5111879;28;20460;-28
2022/03/31 04:52:35;;;;;;;3.45;1.00;;;;;;;2.88;100.00;100366.66;5110536;28;20506;-27
2022/03/31 04:55:04;;;;;;;3.03;1.25;;;;;;;2.86;100.00;100368.81;5110942;27;20044;-29
2022/03/31 04:57:31;;;;;;;3.42;1.00;;;;;;;2.84;100.00;100369.09;5111045;28;20051;-28
2022/03/31 04:59:59;;;;;;;5.07;1.08;;;;;;;2.80;100.00;100370.69;5110647;27;20048;-32
2022/03/31 05:02:27;;;;;;;2.03;0.85;;;;;;;2.76;100.00;100372.31;5110820;28;20400;-38
2022/03/31 05:04:56;;;;;;;6.15;1.00;;;;;;;2.72;100.00;100366.50;5111051;28;20044;-28
2022/03/31 05:07:24;;;;;;;6.55;1.40;;;;;;;2.69;100.00;100369.78;5111112;28;20056;-29
2022/03/31 05:09:53;;;;;;;3.75;1.10;;;;;;;2.68;100.00;100378.28;5112308;28;20067;-26
2022/03/31 05:12:21;;;;;;;4.50;0.98;;;;;;;2.68;100.00;100373.63;5110938;28;20039;-29
2022/03/31 05:14:49;;;;;;;2.95;1.20;;;;;;;2.66;100.00;100377.72;5111725;28;20050;-31
2022/03/31 05:17:16;;;;;;;2.80;1.35;;;;;;;2.67;100.00;100373.88;5112237;27;20082;-26
2022/03/31 05:19:44;;;;;;;3.83;1.60;;;;;;;2.64;100.00;100379.88;5112247;28;20130;-29
2022/03/31 05:22:13;;;;;;;2.40;1.25;;;;;;;2.61;100.00;100372.97;5109842;28;20046;-28
2022/03/31 05:24:41;;;;;;;3.47;1.40;;;;;;;2.58;100.00;100369.94;5111631;28;20043;-29
2022/03/31 05:27:09;;;;;;;2.40;1.15;;;;;;;2.52;100.00;100370.94;5111555;28;20051;-30
2022/03/31 05:29:37;;;;;;;4.32;1.23;;;;;;;2.49;100.00;100374.22;5111449;28;20040;-28
2022/03/31 05:32:06;;;;;;;3.08;1.10;;;;;;;2.47;100.00;100374.47;5112165;28;20436;-27
2022/03/31 05:34:35;;;;;;;3.35;1.20;;;;;;;2.48;100.00;100369.81;5111785;28;20046;-25
2022/03/31 05:37:05;;;;;;;3.83;1.40;;;;;;;2.49;100.00;100375.06;5111322;28;20112;-24
2022/03/31 05:39:34;;;;;;;3.40;1.00;;;;;;;2.52;100.00;100370.94;5111039;28;20047;-30
2022/03/31 05:42:03;;;;;;;3.10;0.88;;;;;;;2.54;100.00;100371.53;5109111;28;20543;-32
2022/03/31 05:44:31;;;;;;;3.08;0.80;;;;;;;2.55;100.00;100367.69;5110607;28;20411;-28
2022/03/31 05:46:59;;;;;;;2.05;0.80;;;;;;;2.57;100.00;100358.09;5112198;28;20048;-29
2022/03/31 05:49:27;;;;;;;2.97;0.90;;;;;;;2.61;100.00;100353.69;5111004;28;20055;-28
2022/03/31 05:51:54;;;;;;;2.97;0.70;;;;;;;2.64;100.00;100355.09;5111927;28;20075;-32
2022/03/31 05:54:22;;;;;;;1.55;0.80;;;;;;;2.67;100.00;100354.59;5111778;28;20058;-34
2022/03/31 05:56:51;;;;;;;4.13;0.85;;;;;;;2.69;100.00;100361.50;5111079;28;20416;-28
2022/03/31 05:59:24;;;;;;;3.15;0.80;;;;;;;2.72;100.00;100351.91;5111872;28;20056;-32
2022/03/31 06:01:52;;;;;;;2.20;0.88;;;;;;;2.75;100.00;100354.13;5111612;28;20456;-27
2022/03/31 06:04:21;;;;;;;5.00;0.90;;;;;;;2.79;100.00;100349.78;5111032;28;20047;-25
2022/03/31 06:06:49;;;;;;;2.42;0.90;;;;;;;2.81;100.00;100350.31;5112031;28;20058;-30
2022/03/31 06:09:17;;;;;;;2.15;1.02;;;;;;;2.84;100.00;100355.31;5111972;28;20062;-26
2022/03/31 06:11:45;;;;;;;1.90;0.80;;;;;;;2.87;100.00;100352.03;5110909;28;20386;-29
2022/03/31 06:14:14;;;;;;;3.00;1.00;;;;;;;2.89;100.00;100349.03;5112045;28;20477;-26
2022/03/31 06:16:42;;;;;;;2.00;0.90;;;;;;;2.92;100.00;100354.84;5111870;28;20044;-29
2022/03/31 06:19:09;;;;;;;3.90;1.00;;;;;;;2.96;100.00;100347.72;5110654;28;20044;-27
2022/03/31 06:21:37;;;;;;;2.67;1.30;;;;;;;2.98;100.00;100358.50;5111702;28;20071;-23
2022/03/31 06:24:06;;;;;;;3.42;1.30;;;;;;;3.01;100.00;100361.53;5111744;28;20050;-30
2022/03/31 06:26:34;;;;;;;4.47;1.13;;;;;;;3.01;100.00;100358.78;5110889;28;20036;-27
2022/03/31 06:29:06;;;;;;;2.90;1.10;;;;;;;3.04;100.00;100357.44;5111183;28;20043;-26
2022/03/31 06:31:37;;;;;;;2.97;0.95;;;;;;;3.06;100.00;100358.81;5110786;28;20047;-28
2022/03/31 06:34:06;;;;;;;2.42;0.70;;;;;;;3.06;100.00;100353.31;5111912;28;20062;-25
2022/03/31 06:36:33;;;;;;;1.70;0.63;;;;;;;3.08;100.00;100356.66;5111559;28;20040;-29
2022/03/31 06:39:01;;;;;;;4.05;0.80;;;;;;;3.11;100.00;100360.81;5110627;28;20112;-24
2022/03/31 06:41:29;;;;;;;5.97;1.30;;;;;;;3.14;100.00;100352.00;5111551;28;20039;-29
2022/03/31 06:43:57;;;;;;;4.55;0.80;;;;;;;3.19;100.00;100354.00;5111535;28;20054;-27
2022/03/31 06:46:25;;;;;;;2.70;0.80;;;;;;;3.19;100.00;100348.47;5112148;28;20598;-26
2022/03/31 06:48:54;;;;;;;2.40;0.90;;;;;;;3.19;100.00;100352.06;5115627;28;20483;-27
2022/03/31 06:51:22;;;;;;;5.82;1.30;;;;;;;3.20;100.00;100350.16;5114967;27;20063;-27
2022/03/31 06:53:49;;;;;;;1.65;0.73;;;;;;;3.22;100.00;100347.91;5115052;28;20505;-31
2022/03/31 06:56:23;;;;;;;3.88;1.15;;;;;;;3.24;100.00;100342.97;5115085;27;20484;-26
2022/03/31 06:58:51;;;;;;;2.03;0.80;;;;;;;3.30;100.00;100356.56;5114952;28;20138;-29
2022/03/31 07:01:18;;;;;;;2.42;0.70;;;;;;;3.35;100.00;100345.56;5114351;28;20048;-30
2022/03/31 07:03:46;;;;;;;2.42;1.00;;;;;;;3.40;100.00;100342.00;5115179;28;20048;-24
2022/03/31 07:06:16;;;;;;;3.30;1.10;;;;;;;3.46;100.00;100338.19;5114784;28;20049;-29
2022/03/31 07:08:44;;;;;;;3.97;1.25;;;;;;;3.49;100.00;100343.19;5114062;28;20054;-34
2022/03/31 07:11:13;;;;;;;5.03;1.25;;;;;;;3.56;100.00;100342.97;5114652;28;20040;-29
2022/03/31 07:13:40;;;;;;;2.35;1.13;;;;;;;3.60;100.00;100344.91;5114153;28;20044;-25
2022/03/31 07:16:08;;;;;;;2.60;1.10;;;;;;;3.63;100.00;100347.13;5114856;28;20205;-29
2022/03/31 07:18:36;;;;;;;3.42;1.30;;;;;;;3.70;100.00;100344.16;5114698;28;20035;-35
2022/03/31 07:21:03;;;;;;;1.92;1.00;;;;;;;3.77;100.00;100329.03;5113798;28;20055;-33
2022/03/31 07:23:32;;;;;;;2.33;0.95;;;;;;;3.84;100.00;100339.81;5114605;28;20122;-27
2022/03/31 07:26:00;;;;;;;2.08;1.10;;;;;;;3.91;100.00;100342.34;5114205;28;20039;-27
2022/03/31 07:28:28;;;;;;;3.95;1.35;;;;;;;3.96;100.00;100334.09;5113991;28;20130;-29
2022/03/31 07:30:56;;;;;;;2.47;1.30;;;;;;;4.07;100.00;100338.53;5114463;28;20047;-29
2022/03/31 07:33:23;;;;;;;3.30;1.48;;;;;;;4.25;100.00;100340.00;5113308;28;20404;-24
2022/03/31 07:35:51;;;;;;;3.58;2.05;;;;;;;4.66;100.00;100332.66;5112299;28;20063;-27
2022/03/31 07:38:19;;;;;;;3.70;2.00;;;;;;;5.19;100.00;100328.59;5112439;28;20170;-27
2022/03/31 07:40:49;;;;;;;3.55;2.13;;;;;;;5.86;100.00;100330.97;5114173;28;20054;-32
2022/03/31 07:43:17;;;;;;;3.67;2.00;;;;;;;6.40;100.00;100332.19;5112362;28;20051;-25
2022/03/31 07:45:46;;;;;;;3.33;1.80;;;;;;;6.66;100.00;100324.56;5114165;28;20157;-28
2022/03/31 07:48:16;;;;;;;3.08;1.50;;;;;;;6.64;100.00;100326.78;5113875;28;20059;-24
2022/03/31 07:50:44;;;;;;;2.50;1.40;;;;;;;6.39;100.00;100319.47;5112511;28;20138;-28
2022/03/31 07:53:12;;;;;;;3.17;1.20;;;;;;;6.25;100.00;100318.41;5114133;28;20044;-25
2022/03/31 07:55:41;;;;;;;2.72;1.13;;;;;;;6.14;100.00;100318.47;5113111;27;20059;-27
2022/03/31 07:58:10;;;;;;;3.15;1.30;;;;;;;6.10;100.00;100316.53;5113966;28;20511;-26
2022/03/31 08:00:38;;;;;;;4.82;1.55;;;;;;;6.04;100.00;100309.34;5113662;28;20130;-36
2022/03/31 08:03:06;;;;;;;4.38;1.50;;;;;;;5.95;100.00;100308.28;5112884;28;20563;-25
2022/03/31 08:05:38;;;;;;;4.85;1.50;;;;;;;5.85;100.00;100300.78;5113457;28;20047;-29
2022/03/31 08:08:06;;;;;;;2.70;1.40;;;;;;;5.69;100.00;100316.63;5113838;28;20131;-31
2022/03/31 08:10:34;;;;;;;3.08;1.40;;;;;;;5.50;100.00;100316.38;5112634;28;20481;-27
2022/03/31 08:13:01;;;;;;;4.90;1.38;;;;;;;5.29;100.00;100319.44;5113191;28;20488;-24
2022/03/31 08:15:30;;;;;;;2.40;1.63;;;;;;;5.11;100.00;100305.06;5113416;28;20144;-26
2022/03/31 08:17:58;;;;;;;3.30;1.70;;;;;;;4.99;100.00;100310.06;5111135;28;20429;-31
2022/03/31 08:20:26;;;;;;;2.80;1.50;;;;;;;4.90;100.00;100311.69;5113349;28;20537;-27
2022/03/31 08:22:54;;;;;;;3.25;1.60;;;;;;;4.87;100.00;100309.47;5113344;28;20051;-24
2022/03/31 08:25:22;;;;;;;4.03;1.50;;;;;;;4.81;100.00;100303.13;5112646;28;20130;-24
2022/03/31 08:27:50;;;;;;;4.25;1.48;;;;;;;4.77;100.00;100309.47;5113271;28;20463;-33
2022/03/31 08:30:21;;;;;;;3.42;1.50;;;;;;;4.76;100.00;100305.06;5113071;28;20492;-29
2022/03/31 08:32:50;;;;;;;2.53;1.50;;;;;;;4.83;100.00;100297.31;5112559;28;20043;-27
2022/03/31 08:35:20;;;;;;;3.63;1.55;;;;;;;4.95;100.00;100295.13;5113361;28;20089;-31
2022/03/31 08:37:47;;;;;;;3.67;1.73;;;;;;;5.14;100.00;100293.47;5112722;28;20515;-32
2022/03/31 08:40:15;;;;;;;4.20;1.83;;;;;;;5.40;100.00;100296.19;5112985;28;20573;-30
2022/03/31 08:42:44;;;;;;;3.10;1.70;;;;;;;5.66;100.00;100303.34;5113032;28;20058;-28
2022/03/31 08:45:15;;;;;;;3.35;1.58;;;;;;;5.98;100.00;100296.66;5112649;28;20046;-24
2022/03/31 08:47:44;;;;;;;2.53;1.50;;;;;;;6.18;100.00;100285.47;5109656;28;20104;-30
2022/03/31 08:50:20;;;;;;;2.38;1.25;;;;;;;6.23;100.00;100296.50;5112851;28;20101;-29
2022/03/31 08:52:49;;;;;;;2.53;1.42;;;;;;;6.27;100.00;100283.75;5112191;28;20047;-29
2022/03/31 08:55:18;;;;;;;4.38;1.80;;;;;;;6.44;100.00;100273.13;5112499;28;20042;-31
2022/03/31 08:57:48;;;;;;;2.30;1.70;;;;;;;6.81;100.00;100275.38;5112709;28;20127;-26
2022/03/31 09:00:18;;;;;;;3.45;1.33;;;;;;;7.02;100.00;100284.38;5111334;28;20051;-32
2022/03/31 09:02:58;;;;;;;2.95;1.40;;;;;;;7.29;100.00;100283.88;5112037;28;20059;-30
2022/03/31 09:05:35;;;;;;;2.40;1.42;;;;;;;7.74;100.00;100290.91;5112266;28;20478;-28
2022/03/31 09:08:05;;;;;;;1.95;1.17;;;;;;;7.93;100.00;100289.03;5093197;28;20454;-30
2022/03/31 09:10:36;;;;;;;2.22;1.38;;;;;;;7.85;100.00;100286.88;5112355;28;20411;-28
2022/03/31 09:13:16;;;;;;;2.63;1.35;;;;;;;7.72;100.00;100295.09;5111581;28;20052;-25
2022/03/31 09:15:48;;;;;;;2.83;1.30;;;;;;;7.53;100.00;100295.84;5112597;27;20035;-25
2022/03/31 09:18:17;;;;;;;2.40;1.60;;;;;;;7.30;100.00;100293.84;5112315;28;20039;-28
2022/03/31 09:20:48;;;;;;;3.00;1.60;;;;;;;7.16;100.00;100292.88;5111489;28;20476;-29
2022/03/31 09:23:17;;;;;;;2.20;1.20;;;;;;;7.08;100.00;100294.31;5112065;28;20486;-32
2022/03/31 09:25:45;;;;;;;3.35;1.38;;;;;;;6.94;100.00;100298.88;5104708;28;20488;-27
2022/03/31 09:28:15;;;;;;;2.80;1.40;;;;;;;6.82;100.00;100298.38;5111403;28;20519;-24
2022/03/31 09:30:49;;;;;;;2.33;1.30;;;;;;;6.72;100.00;100292.94;5112279;28;20047;-23
2022/03/31 09:33:31;;;;;;;2.38;1.50;;;;;;;6.68;100.00;100291.84;5112417;28;20043;-32
2022/03/31 09:36:03;;;;;;;3.15;1.60;;;;;;;6.59;100.00;100291.63;5111689;28;20461;-27
2022/03/31 09:38:35;;;;;;;2.78;1.88;;;;;;;6.51;100.00;100295.81;5111934;27;20047;-35
2022/03/31 09:41:05;;;;;;;3.58;1.50;;;;;;;6.41;100.00;100284.78;5112207;28;20511;-25
2022/03/31 09:43:40;;;;;;;3.90;1.60;;;;;;;6.37;100.00;100299.53;5112241;28;20516;-29
2022/03/31 09:46:18;;;;;;;3.75;1.55;;;;;;;6.33;100.00;100284.56;5112074;28;20109;-28
2022/03/31 09:48:48;;;;;;;2.88;1.42;;;;;;;6.42;100.00;100288.38;5111412;28;20052;-27
2022/03/31 09:51:17;;;;;;;3.47;1.85;;;;;;;6.66;100.00;100294.06;5112007;28;20068;-28
2022/03/31 09:53:47;;;;;;;3.72;2.25;;;;;;;6.73;100.00;100298.19;5111892;28;20480;-23
2022/03/31 09:56:16;;;;;;;2.97;1.80;;;;;;;6.67;100.00;100304.88;5111291;28;20052;-27
2022/03/31 09:58:46;;;;;;;1.88;1.10;;;;;;;6.52;100.00;100303.03;5112080;28;20074;-24
2022/03/31 10:01:15;;;;;;;2.55;1.33;;;;;;;6.34;100.00;100316.72;5111971;28;20468;-31
2022/03/31 10:03:43;;;;;;;3.42;1.67;;;;;;;6.21;100.00;100316.19;5111091;28;20123;-30
2022/03/31 10:06:13;;;;;;;2.20;1.30;;;;;;;6.15;100.00;100314.56;5111820;28;20051;-25
2022/03/31 10:08:44;;;;;;;2.45;1.40;;;;;;;6.09;100.00;100321.25;5111901;28;20048;-27
2022/03/31 10:11:19;;;;;;;2.60;1.20;;;;;;;6.06;100.00;100327.34;5111396;28;20047;-28
2022/03/31 10:13:54;;;;;;;2.63;1.65;;;;;;;6.00;100.00;100333.16;5112199;28;20115;-30
2022/03/31 10:16:31;;;;;;;2.58;1.65;;;;;;;5.88;100.00;100348.16;5111140;28;20040;-26
2022/03/31 10:18:59;;;;;;;3.17;1.67;;;;;;;5.79;100.00;100337.94;5112013;28;20504;-31
2022/03/31 10:21:27;;;;;;;1.90;1.30;;;;;;;5.70;100.00;100345.13;5113783;28;20058;-26
2022/03/31 10:26:42;;;;;;;2.15;1.40;;;;;;;5.55;100.00;100346.00;5106462;28;20053;-32
2022/03/31 10:29:12;;;;;;;3.10;1.42;;;;;;;5.51;100.00;100347.66;5115556;28;20122;-27
2022/03/31 10:31:41;;;;;;;3.25;1.48;;;;;;;5.49;100.00;100345.16;5115053;28;20051;-29
2022/03/31 10:34:10;;;;;;;2.92;1.60;;;;;;;5.40;100.00;100345.97;5112252;28;20052;-24
2022/03/31 10:36:43;;;;;;;4.00;1.70;;;;;;;5.35;100.00;100351.53;5115682;28;20465;-24
2022/03/31 10:39:19;;;;;;;2.83;1.67;;;;;;;5.31;100.00;100347.66;5114627;28;20396;-30
2022/03/31 10:41:47;;;;;;;3.63;2.00;;;;;;;5.30;100.00;100357.91;5115222;28;20139;-28
2022/03/31 10:44:19;;;;;;;5.03;1.98;;;;;;;5.29;100.00;100347.94;5115143;28;20048;-29
2022/03/31 10:46:58;;;;;;;4.65;2.05;;;;;;;5.25;100.00;100359.81;5112115;28;20050;-30
2022/03/31 10:49:26;;;;;;;2.20;1.60;;;;;;;5.19;100.00;100362.63;5115123;28;20039;-31
2022/03/31 10:51:54;;;;;;;2.97;1.67;;;;;;;5.15;100.00;100368.97;5114430;28;20054;-24
2022/03/31 10:54:28;;;;;;;3.63;1.70;;;;;;;5.11;100.00;100354.84;5115304;28;20492;-28
2022/03/31 10:57:07;;;;;;;3.60;2.15;;;;;;;5.05;100.00;100361.47;5114775;28;20084;-26
2022/03/31 10:59:36;;;;;;;3.47;2.05;;;;;;;4.93;100.00;100352.63;5114243;28;20051;-26
2022/03/31 11:02:10;;;;;;;3.33;2.10;;;;;;;4.90;100.00;100367.00;5115090;28;20046;-27
2022/03/31 11:04:46;;;;;;;3.78;2.40;;;;;;;4.91;100.00;100374.19;5112797;28;20048;-28
2022/03/31 11:07:16;;;;;;;3.72;2.10;;;;;;;4.80;100.00;100364.19;5113152;28;20046;-29
2022/03/31 11:09:46;;;;;;;3.53;2.20;;;;;;;4.78;100.00;100371.94;5115134;28;20087;-35
2022/03/31 11:12:26;;;;;;;4.40;2.55;;;;;;;4.78;100.00;100374.72;5114836;28;20492;-33
2022/03/31 11:14:59;;;;;;;5.28;2.40;;;;;;;4.75;100.00;100364.22;5113908;27;20081;-31
2022/03/31 11:17:28;;;;;;;6.80;2.97;;;;;;;4.70;100.00;100369.72;5114928;28;20040;-28
2022/03/31 11:19:58;;;;;;;4.25;2.63;;;;;;;4.73;100.00;100380.22;5113813;28;20432;-27
2022/03/31 11:22:27;;;;;;;5.88;2.58;;;;;;;4.70;100.00;100365.00;5114598;28;20039;-30
2022/03/31 11:25:08;;;;;;;6.00;2.88;;;;;;;4.66;100.00;100374.94;5114509;28;20043;-26
2022/03/31 11:27:41;;;;;;;4.97;2.58;;;;;;;4.58;100.00;100377.44;5093761;28;20101;-28
2022/03/31 11:30:12;;;;;;;5.57;3.00;;;;;;;4.51;100.00;100377.66;5094629;28;20060;-26
2022/03/31 11:32:42;;;;;;;6.97;3.30;;;;;;;4.49;100.00;100375.19;5094238;28;20097;-27
2022/03/31 11:35:12;;;;;;;4.50;2.95;;;;;;;4.50;100.00;100381.53;5093547;28;20511;-29
2022/03/31 11:37:48;;;;;;;3.80;2.90;;;;;;;4.50;100.00;100371.31;5094238;28;20044;-32
2022/03/31 11:40:22;;;;;;;4.65;3.17;;;;;;;4.47;100.00;100379.31;5107918;28;20043;-30
2022/03/31 11:42:51;;;;;;;5.15;3.42;;;;;;;4.46;100.00;100381.25;5113801;28;20142;-29